Time;durP1;ratioP1;P1;durP2;ratioP2;P2;SDS_P1;SDS_P2;PMS_P1;PMS_P2;Temp;Humidity;BMP_temperature;BMP_pressure;BME280_temperature;BME280_humidity;BME280_pressure;Samples;Min_cycle;Max_cycle;Signal;HPM_P1;HPM_P2
2021/12/06 00:02:18;;;;;;;3.60;2.30;;;;;;;18.73;49.88;101367.41;5070548;28;20059;-65
2021/12/06 00:04:44;;;;;;;3.72;2.10;;;;;;;18.73;49.59;101368.25;5071305;28;20369;-65
2021/12/06 00:07:13;;;;;;;3.45;2.15;;;;;;;18.69;49.57;101366.78;5052026;28;20569;-65
2021/12/06 00:09:39;;;;;;;3.75;2.22;;;;;;;18.66;49.17;101369.69;5070894;28;20044;-65
2021/12/06 00:12:04;;;;;;;4.00;2.40;;;;;;;18.65;49.52;101368.03;5052532;28;20378;-65
2021/12/06 00:14:33;;;;;;;5.40;2.45;;;;;;;18.61;49.64;101371.88;5071073;28;20569;-65
2021/12/06 00:17:04;;;;;;;4.20;2.22;;;;;;;18.62;48.96;101370.94;5052946;28;20041;-65
2021/12/06 00:19:29;;;;;;;3.75;2.30;;;;;;;18.63;49.56;101372.59;5052418;28;20053;-65
2021/12/06 00:21:55;;;;;;;4.03;2.53;;;;;;;18.63;49.25;101382.41;5052853;28;20436;-65
2021/12/06 00:24:20;;;;;;;4.05;2.25;;;;;;;18.60;49.07;101394.13;5052216;28;20048;-65
2021/12/06 00:26:46;;;;;;;3.88;2.30;;;;;;;18.58;49.07;101390.72;5052303;28;20045;-65
2021/12/06 00:29:11;;;;;;;4.22;2.17;;;;;;;18.53;48.92;101387.63;5051851;28;20044;-65
2021/12/06 00:31:37;;;;;;;4.45;2.40;;;;;;;18.54;49.44;101386.66;5070319;28;20048;-65
2021/12/06 00:34:08;;;;;;;4.32;2.45;;;;;;;18.55;49.33;101393.66;5070157;28;20064;-65
2021/12/06 00:36:34;;;;;;;4.95;2.20;;;;;;;18.47;48.96;101390.78;5052838;28;20044;-65
2021/12/06 00:39:00;;;;;;;3.95;2.40;;;;;;;18.49;49.28;101396.81;5052375;28;20040;-65
2021/12/06 00:41:26;;;;;;;4.43;2.58;;;;;;;18.46;49.71;101392.59;5051988;28;20041;-65
2021/12/06 00:43:51;;;;;;;4.20;2.30;;;;;;;18.45;49.00;101400.69;5070379;28;20051;-65
2021/12/06 00:46:18;;;;;;;5.72;2.67;;;;;;;18.44;49.36;101399.84;5069915;28;20040;-65
2021/12/06 00:48:43;;;;;;;4.25;2.20;;;;;;;18.41;49.06;101404.56;5069144;28;20040;-65
2021/12/06 00:51:11;;;;;;;3.58;2.38;;;;;;;18.41;49.09;101408.06;5069683;28;20047;-65
2021/12/06 00:53:36;;;;;;;4.70;2.50;;;;;;;18.39;49.44;101406.47;5052749;28;20499;-65
2021/12/06 00:56:02;;;;;;;4.85;2.47;;;;;;;18.43;49.24;101410.59;5052136;28;20126;-65
2021/12/06 00:58:27;;;;;;;3.72;2.50;;;;;;;18.45;49.21;101416.63;5069978;28;20511;-65
2021/12/06 01:00:53;;;;;;;5.13;2.63;;;;;;;18.39;49.34;101419.78;5070111;28;20040;-65
2021/12/06 01:03:27;;;;;;;4.03;2.38;;;;;;;18.41;48.73;101423.16;5051678;28;20042;-65
2021/12/06 01:05:52;;;;;;;5.30;2.50;;;;;;;18.39;49.04;101422.44;5053262;28;20036;-65
2021/12/06 01:08:18;;;;;;;4.75;2.55;;;;;;;18.36;48.85;101425.31;5069144;28;20041;-65
2021/12/06 01:10:43;;;;;;;4.38;2.47;;;;;;;18.37;49.38;101424.38;5051539;28;20044;-65
2021/12/06 01:13:09;;;;;;;5.53;2.70;;;;;;;18.35;49.29;101427.16;5069122;28;20089;-65
2021/12/06 01:15:35;;;;;;;4.50;2.58;;;;;;;18.40;48.60;101434.75;5051939;28;20125;-65
2021/12/06 01:18:01;;;;;;;3.63;2.50;;;;;;;18.36;48.92;101430.63;5069184;28;20097;-66
2021/12/06 01:20:30;;;;;;;5.05;2.47;;;;;;;18.27;48.80;101430.44;5051407;28;20044;-65
2021/12/06 01:23:02;;;;;;;5.25;3.00;;;;;;;18.31;49.32;101435.50;5051426;28;20052;-64
2021/12/06 01:25:39;;;;;;;4.82;2.58;;;;;;;18.26;49.42;101441.16;5052420;28;20565;-65
2021/12/06 01:28:34;;;;;;;5.03;2.60;;;;;;;18.32;48.55;101438.03;5069107;28;20041;-65
2021/12/06 01:41:27;;;;;;;5.07;2.78;;;;;;;18.24;48.76;101453.75;5068452;28;20102;-65
2021/12/06 01:44:31;;;;;;;5.05;2.80;;;;;;;18.25;49.07;101455.41;5069372;28;20435;-65
2021/12/06 01:47:22;;;;;;;5.18;2.80;;;;;;;18.23;49.00;101454.69;5068237;28;20063;-65
2021/12/06 01:49:53;;;;;;;4.75;2.90;;;;;;;18.21;49.35;101461.94;5050638;28;20063;-65
2021/12/06 01:52:20;;;;;;;5.13;2.60;;;;;;;18.18;48.92;101460.38;5050592;28;20045;-65
2021/12/06 01:54:46;;;;;;;4.70;2.90;;;;;;;18.19;48.69;101456.75;5051097;28;20036;-65
2021/12/06 01:57:11;;;;;;;4.95;2.60;;;;;;;18.18;48.90;101454.22;5034131;28;20525;-65
2021/12/06 01:59:37;;;;;;;4.63;2.90;;;;;;;18.12;48.60;101450.25;5068877;28;20082;-65
2021/12/06 02:02:03;;;;;;;5.15;3.08;;;;;;;18.11;48.42;101451.19;5067816;28;20052;-65
2021/12/06 02:04:29;;;;;;;5.18;3.10;;;;;;;18.13;48.68;101449.25;5050890;28;20097;-65
2021/12/06 02:06:56;;;;;;;4.45;2.90;;;;;;;18.12;48.83;101444.94;5068926;28;20029;-64
2021/12/06 02:09:25;;;;;;;5.05;2.92;;;;;;;18.11;49.16;101451.19;5050408;28;20041;-65
2021/12/06 02:11:52;;;;;;;4.20;2.90;;;;;;;18.08;48.66;101451.41;5034657;28;20032;-65
2021/12/06 02:14:29;;;;;;;4.35;2.55;;;;;;;18.08;48.80;101456.75;5050678;28;20036;-65
2021/12/06 02:19:35;;;;;;;4.85;2.92;;;;;;;18.06;48.55;101447.22;5050593;28;20112;-65
2021/12/06 02:22:00;;;;;;;5.15;2.92;;;;;;;18.06;48.88;101450.72;5068484;28;20044;-65
2021/12/06 02:24:27;;;;;;;5.00;2.85;;;;;;;18.01;48.88;101445.75;5050372;28;20048;-65
2021/12/06 02:26:53;;;;;;;5.72;3.20;;;;;;;18.01;48.93;101443.09;5050746;28;20040;-65
2021/12/06 02:29:19;;;;;;;5.28;3.00;;;;;;;17.99;48.69;101441.56;5049990;28;20040;-65
2021/12/06 02:31:44;;;;;;;5.18;3.13;;;;;;;17.98;48.72;101439.84;5049904;28;20119;-65
2021/12/06 02:34:10;;;;;;;5.55;3.25;;;;;;;17.97;48.72;101446.13;5067806;28;20098;-65
2021/12/06 02:36:35;;;;;;;6.57;3.80;;;;;;;17.99;49.13;101453.03;5050502;28;20758;-65
2021/12/06 02:39:01;;;;;;;4.78;3.10;;;;;;;17.95;48.59;101442.75;5049947;28;20044;-67
2021/12/06 02:41:26;;;;;;;6.13;3.42;;;;;;;17.95;48.66;101445.41;5067739;28;20071;-65
2021/12/06 02:43:52;;;;;;;6.97;3.35;;;;;;;17.97;48.87;101448.78;5017226;28;20036;-65
2021/12/06 02:46:17;;;;;;;5.72;3.80;;;;;;;17.92;48.70;101440.31;5049919;28;20036;-65
2021/12/06 02:48:43;;;;;;;5.88;3.30;;;;;;;17.90;48.51;101435.16;5033652;28;20041;-65
2021/12/06 02:51:08;;;;;;;5.93;3.45;;;;;;;17.90;48.88;101437.81;5049296;28;20135;-65
2021/12/06 02:53:35;;;;;;;6.90;3.30;;;;;;;17.89;48.69;101440.56;5017153;28;20396;-65
2021/12/06 02:56:05;;;;;;;6.32;3.67;;;;;;;17.85;48.42;101445.28;5049594;28;20045;-66
2021/12/06 02:59:19;;;;;;;5.18;3.65;;;;;;;17.87;48.58;101453.13;5049968;28;20465;-65
2021/12/06 03:01:37;;;;;;;5.72;3.13;;;;;;;17.82;48.57;101455.28;5035126;28;20067;-65
2021/12/06 03:04:03;;;;;;;5.45;3.50;;;;;;;17.83;48.71;101446.34;5034972;28;20124;-65
2021/12/06 03:06:29;;;;;;;5.70;3.53;;;;;;;17.85;48.53;101449.75;5067944;28;20045;-65
2021/12/06 03:09:03;;;;;;;5.60;3.40;;;;;;;17.86;48.44;101443.47;5050048;28;20029;-65
2021/12/06 03:11:46;;;;;;;6.00;3.42;;;;;;;17.85;48.39;101437.31;5033980;28;20037;-65
2021/12/06 03:14:14;;;;;;;6.10;3.30;;;;;;;17.77;48.49;101443.22;5039551;28;20034;-65
2021/12/06 03:16:40;;;;;;;5.93;3.67;;;;;;;17.79;48.76;101437.78;5048004;28;20044;-65
2021/12/06 03:19:06;;;;;;;5.90;3.55;;;;;;;17.78;48.50;101450.22;5045715;28;20056;-65
2021/12/06 03:21:31;;;;;;;5.78;3.45;;;;;;;17.78;48.66;101463.50;5067648;28;20036;-65
2021/12/06 03:23:57;;;;;;;6.78;3.60;;;;;;;17.76;48.43;101457.41;5050152;28;20045;-65
2021/12/06 03:26:22;;;;;;;6.70;3.60;;;;;;;17.74;48.71;101448.75;5067445;28;20041;-65
2021/12/06 03:28:48;;;;;;;7.13;3.80;;;;;;;17.73;48.40;101449.69;5033673;28;20029;-65
2021/12/06 03:31:14;;;;;;;6.25;3.58;;;;;;;17.75;48.32;101458.38;5033080;28;20420;-65
2021/12/06 03:33:40;;;;;;;5.30;3.10;;;;;;;17.74;48.48;101451.41;5048947;28;20036;-65
2021/12/06 03:36:06;;;;;;;6.47;3.83;;;;;;;17.72;48.50;101449.81;5067283;28;20048;-65
2021/12/06 03:38:32;;;;;;;5.80;3.40;;;;;;;17.71;48.62;101448.13;5067686;28;20427;-65
2021/12/06 03:40:58;;;;;;;5.28;3.40;;;;;;;17.71;48.53;101441.03;5067639;28;20056;-65
2021/12/06 03:43:23;;;;;;;5.40;3.20;;;;;;;17.70;48.22;101444.63;5066770;28;20067;-65
2021/12/06 03:45:49;;;;;;;6.93;3.47;;;;;;;17.70;48.22;101441.97;5066524;28;20033;-64
2021/12/06 03:48:14;;;;;;;5.35;3.42;;;;;;;17.68;48.45;101443.06;5067309;28;20476;-65
2021/12/06 03:50:40;;;;;;;5.28;3.17;;;;;;;17.67;48.43;101444.00;5067492;28;20025;-65
2021/12/06 03:53:05;;;;;;;6.55;3.60;;;;;;;17.67;48.47;101446.66;5067802;28;20040;-65
2021/12/06 03:55:30;;;;;;;6.40;3.70;;;;;;;17.65;48.94;101453.91;5070505;28;20083;-65
2021/12/06 03:57:56;;;;;;;6.65;3.40;;;;;;;17.62;48.42;101457.66;5053365;28;20511;-65
2021/12/06 04:00:21;;;;;;;7.07;3.90;;;;;;;17.67;48.30;101462.59;5070586;28;20074;-65
2021/12/06 04:02:47;;;;;;;5.25;3.63;;;;;;;17.66;48.38;101464.41;5070871;28;20516;-65
2021/12/06 04:05:12;;;;;;;5.50;3.63;;;;;;;17.63;48.67;101469.94;5019084;28;20052;-65
2021/12/06 04:07:38;;;;;;;6.00;3.78;;;;;;;17.69;48.39;101461.50;5070842;28;20043;-65
2021/12/06 04:10:04;;;;;;;5.15;3.55;;;;;;;17.63;48.57;101456.69;5070465;28;20051;-65
2021/12/06 04:12:30;;;;;;;6.10;3.90;;;;;;;17.66;48.52;101463.56;5070551;28;20055;-65
2021/12/06 04:14:57;;;;;;;5.88;3.75;;;;;;;17.62;48.29;101462.97;5035967;28;20697;-65
2021/12/06 04:17:22;;;;;;;6.50;3.88;;;;;;;17.61;48.33;101461.25;5066965;28;20044;-65
2021/12/06 04:19:48;;;;;;;8.18;4.20;;;;;;;17.60;48.50;101456.06;5050969;28;20120;-65
2021/12/06 04:22:13;;;;;;;6.43;3.92;;;;;;;17.61;48.31;101466.56;5032551;28;20086;-65
2021/12/06 04:24:39;;;;;;;5.97;3.80;;;;;;;17.53;48.33;101471.63;5016410;28;20048;-65
2021/12/06 04:27:13;;;;;;;6.97;4.03;;;;;;;17.54;48.34;101475.94;5032702;28;20041;-65
2021/12/06 04:29:42;;;;;;;7.22;4.05;;;;;;;17.51;48.31;101474.38;5036072;28;20680;-65
2021/12/06 04:32:08;;;;;;;6.22;3.97;;;;;;;17.51;48.23;101474.38;5051762;28;20045;-65
2021/12/06 04:34:33;;;;;;;6.65;4.20;;;;;;;17.52;48.49;101480.56;5070545;28;20044;-65
2021/12/06 04:36:59;;;;;;;7.10;3.90;;;;;;;17.53;48.09;101476.91;5052434;28;20041;-65
2021/12/06 04:39:24;;;;;;;7.18;3.65;;;;;;;17.49;48.29;101472.81;5069731;28;20044;-65
2021/12/06 04:41:50;;;;;;;7.00;4.13;;;;;;;17.49;48.14;101470.16;5070366;28;20037;-65
2021/12/06 04:44:15;;;;;;;8.45;4.65;;;;;;;17.53;48.26;101466.31;5070162;28;20045;-65
2021/12/06 04:46:41;;;;;;;7.28;4.55;;;;;;;17.49;48.30;101462.22;5052874;28;20035;-65
2021/12/06 04:49:06;;;;;;;6.15;3.92;;;;;;;17.49;48.40;101449.78;5052074;28;20052;-65
2021/12/06 04:51:32;;;;;;;7.70;4.47;;;;;;;17.46;48.17;101446.53;5052053;28;20048;-65
2021/12/06 04:53:58;;;;;;;6.93;4.05;;;;;;;17.43;47.92;101436.16;5070285;28;20044;-65
2021/12/06 04:56:35;;;;;;;8.00;4.70;;;;;;;17.45;48.31;101437.69;5051834;28;20064;-65
2021/12/06 04:59:12;;;;;;;7.38;4.53;;;;;;;17.43;48.60;101441.47;5070169;28;20115;-65
2021/12/06 05:01:37;;;;;;;6.35;4.20;;;;;;;17.43;47.80;101444.94;5069271;28;20036;-65
2021/12/06 05:04:07;;;;;;;7.13;4.40;;;;;;;17.41;48.00;101446.03;5035158;28;20048;-65
2021/12/06 05:06:33;;;;;;;6.18;4.03;;;;;;;17.43;47.97;101444.09;5070031;28;20028;-65
2021/12/06 05:09:03;;;;;;;6.65;4.18;;;;;;;17.37;48.42;101445.41;5069754;28;20047;-65
2021/12/06 05:11:28;;;;;;;7.57;4.55;;;;;;;17.35;48.28;101456.13;5068905;28;20059;-65
2021/12/06 05:13:54;;;;;;;9.02;4.40;;;;;;;17.32;48.02;101463.47;5051856;28;20443;-65
2021/12/06 05:16:21;;;;;;;7.03;4.45;;;;;;;17.30;47.95;101460.09;5069318;28;20037;-65
2021/12/06 05:18:47;;;;;;;6.90;4.40;;;;;;;17.29;48.10;101464.53;5051801;28;20404;-65
2021/12/06 05:21:12;;;;;;;7.30;4.40;;;;;;;17.29;47.72;101467.19;5033990;28;20033;-65
2021/12/06 05:23:38;;;;;;;6.25;4.07;;;;;;;17.26;47.85;101466.59;5068641;28;20040;-65
2021/12/06 05:26:03;;;;;;;7.05;4.72;;;;;;;17.27;47.82;101460.34;5032880;28;20488;-65
2021/12/06 05:28:32;;;;;;;6.32;4.00;;;;;;;17.29;47.77;101461.88;5034103;28;20074;-65
2021/12/06 05:30:58;;;;;;;7.30;4.50;;;;;;;17.22;48.34;101460.66;5068470;28;20048;-65
2021/12/06 05:33:30;;;;;;;6.03;3.95;;;;;;;17.30;48.13;101460.94;5050538;28;20064;-64
2021/12/06 05:35:58;;;;;;;15.55;4.78;;;;;;;17.44;48.10;101461.69;5059457;28;20048;-64
2021/12/06 05:38:25;;;;;;;7.15;4.53;;;;;;;17.54;48.14;101468.00;5058787;28;20520;-64
2021/12/06 05:40:50;;;;;;;6.82;3.90;;;;;;;17.71;48.14;101464.91;5020663;28;20524;-63
2021/12/06 05:43:16;;;;;;;9.32;5.13;;;;;;;17.75;48.45;101468.16;5031303;28;20037;-65
2021/12/06 05:45:41;;;;;;;7.30;4.68;;;;;;;17.76;47.79;101468.03;5038274;28;20056;-65
2021/12/06 05:48:07;;;;;;;7.88;4.70;;;;;;;17.80;48.02;101472.19;5068463;28;20041;-65
2021/12/06 05:50:32;;;;;;;9.32;4.60;;;;;;;17.86;47.74;101473.50;5069185;28;20033;-65
2021/12/06 05:52:57;;;;;;;8.68;4.85;;;;;;;17.92;47.75;101464.22;5068923;28;20660;-65
2021/12/06 05:55:24;;;;;;;6.70;4.13;;;;;;;17.99;47.54;101462.81;5049684;28;20049;-65
2021/12/06 05:57:49;;;;;;;8.68;4.60;;;;;;;18.02;46.89;101455.44;5059352;28;20037;-64
2021/12/06 06:00:16;;;;;;;7.28;3.88;;;;;;;18.08;47.66;101454.09;5017171;28;20041;-65
2021/12/06 06:02:42;;;;;;;6.88;4.38;;;;;;;18.13;47.45;101454.56;5065276;28;20040;-65
2021/12/06 06:05:09;;;;;;;7.80;4.47;;;;;;;18.15;47.78;101452.66;5052717;28;20088;-65
2021/12/06 06:07:34;;;;;;;7.95;4.10;;;;;;;18.22;47.68;101460.97;5068720;28;20099;-65
2021/12/06 06:10:00;;;;;;;7.25;4.25;;;;;;;18.28;47.91;101460.50;5051020;28;20052;-65
2021/12/06 06:12:25;;;;;;;6.28;4.28;;;;;;;18.38;47.69;101474.72;5067837;28;20400;-65
2021/12/06 06:14:50;;;;;;;6.07;4.03;;;;;;;18.45;47.44;101475.06;5033860;28;20051;-65
2021/12/06 06:17:19;;;;;;;6.82;3.97;;;;;;;18.54;48.06;101474.34;5054753;28;20048;-65
2021/12/06 06:19:51;;;;;;;6.05;3.80;;;;;;;18.63;47.76;101468.28;5048170;28;20044;-65
2021/12/06 06:22:16;;;;;;;4.60;3.10;;;;;;;18.73;47.53;101479.88;5044277;28;20373;-65
2021/12/06 06:24:42;;;;;;;5.35;3.38;;;;;;;18.80;47.67;101476.72;5015485;28;20071;-64
2021/12/06 06:27:07;;;;;;;7.00;2.90;;;;;;;18.86;47.69;101469.09;5048129;28;20804;-65
2021/12/06 06:29:34;;;;;;;5.72;2.90;;;;;;;18.90;47.71;101473.19;5014369;28;20133;-65
2021/12/06 06:32:00;;;;;;;4.20;2.60;;;;;;;18.94;47.83;101476.44;5067738;28;20401;-65
2021/12/06 06:34:25;;;;;;;3.78;2.40;;;;;;;18.98;47.92;101485.00;5033670;28;20048;-65
2021/12/06 06:36:51;;;;;;;6.63;2.78;;;;;;;18.99;47.91;101484.91;5068011;28;20024;-65
2021/12/06 06:39:19;;;;;;;5.70;2.58;;;;;;;19.01;47.50;101482.94;5033283;28;20117;-64
2021/12/06 06:41:46;;;;;;;5.35;2.80;;;;;;;18.99;48.23;101479.59;5049925;28;20527;-63
2021/12/06 06:44:12;;;;;;;4.75;2.65;;;;;;;19.03;47.46;101485.50;5052729;28;20504;-63
2021/12/06 06:46:37;;;;;;;6.75;3.10;;;;;;;19.07;47.40;101490.41;5067813;28;20162;-63
2021/12/06 06:49:03;;;;;;;4.90;2.70;;;;;;;19.09;47.66;101492.97;5064442;28;20044;-64
2021/12/06 06:51:28;;;;;;;4.40;2.90;;;;;;;19.12;47.45;101482.06;5031204;28;20385;-63
2021/12/06 06:53:54;;;;;;;4.47;2.75;;;;;;;19.16;47.45;101486.16;5052879;28;20045;-65
2021/12/06 06:56:19;;;;;;;4.18;2.72;;;;;;;19.15;48.14;101480.00;5058521;28;20045;-64
2021/12/06 06:58:45;;;;;;;3.42;2.30;;;;;;;19.18;47.96;101486.88;5047359;28;20032;-65
2021/12/06 07:01:10;;;;;;;4.50;2.42;;;;;;;19.21;47.93;101489.28;5055413;28;20048;-65
2021/12/06 07:03:36;;;;;;;4.50;2.70;;;;;;;19.23;47.64;101487.31;5054170;28;20061;-65
2021/12/06 07:06:01;;;;;;;4.40;2.80;;;;;;;19.23;47.69;101475.84;5051608;28;20087;-63
2021/12/06 07:08:28;;;;;;;4.50;2.42;;;;;;;19.23;47.89;101473.19;5016465;28;20049;-63
2021/12/06 07:10:54;;;;;;;4.78;2.60;;;;;;;19.24;48.03;101473.06;5037116;28;20522;-63
2021/12/06 07:13:21;;;;;;;4.93;3.00;;;;;;;19.26;47.45;101467.59;5031748;28;20143;-63
2021/12/06 07:15:46;;;;;;;4.22;2.83;;;;;;;19.24;47.63;101457.13;5062455;28;20028;-63
2021/12/06 07:18:12;;;;;;;6.10;3.17;;;;;;;19.23;48.24;101459.88;5035787;28;20047;-63
2021/12/06 07:20:37;;;;;;;4.35;2.97;;;;;;;19.23;47.92;101447.44;5050734;28;20071;-63
2021/12/06 07:23:03;;;;;;;5.95;3.30;;;;;;;19.21;48.67;101445.84;5038476;28;20110;-63
2021/12/06 07:25:29;;;;;;;5.63;3.60;;;;;;;19.18;47.71;101458.47;5058567;28;20029;-63
2021/12/06 07:27:55;;;;;;;6.10;3.60;;;;;;;19.16;48.30;101455.06;5067859;28;20047;-63
2021/12/06 07:30:20;;;;;;;6.00;3.40;;;;;;;19.17;48.47;101464.72;5062930;28;20049;-63
2021/12/06 07:32:46;;;;;;;7.93;4.20;;;;;;;19.18;48.37;101454.97;5054183;28;20048;-63
2021/12/06 07:35:11;;;;;;;6.22;4.13;;;;;;;19.23;48.27;101465.22;5041536;28;20044;-63
2021/12/06 07:37:37;;;;;;;7.93;4.72;;;;;;;19.18;48.63;101458.47;5060858;28;20037;-63
2021/12/06 07:40:03;;;;;;;8.38;4.78;;;;;;;19.23;48.98;101467.88;5063014;28;20045;-63
2021/12/06 07:42:29;;;;;;;6.72;4.40;;;;;;;19.25;48.10;101463.28;5036962;28;20040;-63
2021/12/06 07:44:54;;;;;;;6.80;4.25;;;;;;;19.25;48.10;101450.81;5061238;28;20464;-63
2021/12/06 07:47:20;;;;;;;9.82;4.60;;;;;;;19.21;49.17;101456.50;5042943;28;20114;-60
2021/12/06 07:49:45;;;;;;;8.75;5.50;;;;;;;19.13;48.83;101454.50;5050245;28;20025;-60
2021/12/06 07:52:11;;;;;;;7.63;4.82;;;;;;;19.12;49.67;101461.63;5060446;28;20488;-62
2021/12/06 07:54:36;;;;;;;8.68;5.45;;;;;;;19.11;49.23;101457.25;5051904;28;20068;-62
2021/12/06 07:57:02;;;;;;;7.88;5.40;;;;;;;19.12;48.76;101452.81;5051930;28;20408;-62
2021/12/06 07:59:28;;;;;;;9.23;5.80;;;;;;;19.08;49.34;101460.19;5070436;28;20097;-61
2021/12/06 08:01:53;;;;;;;11.07;5.88;;;;;;;19.09;49.00;101461.06;5061808;28;20071;-60
2021/12/06 08:04:19;;;;;;;11.60;5.78;;;;;;;19.04;48.30;101466.72;5054270;28;20041;-63
2021/12/06 08:06:44;;;;;;;11.32;5.65;;;;;;;19.02;48.86;101473.13;5048665;28;20048;-61
2021/12/06 08:09:10;;;;;;;14.45;6.13;;;;;;;18.98;48.62;101472.56;5032230;28;20035;-62
2021/12/06 08:11:35;;;;;;;16.73;7.97;;;;;;;18.75;48.09;101476.28;5050390;28;20051;-61
2021/12/06 08:14:01;;;;;;;10.20;6.68;;;;;;;18.84;48.33;101480.84;5069299;28;20071;-63
2021/12/06 08:16:34;;;;;;;9.90;5.95;;;;;;;18.89;48.62;101484.78;5048269;28;20118;-61
2021/12/06 08:18:59;;;;;;;8.00;5.28;;;;;;;18.91;48.18;101482.84;5061769;28;20040;-62
2021/12/06 08:21:25;;;;;;;9.20;6.00;;;;;;;18.92;48.06;101481.03;5055017;28;20029;-62
2021/12/06 08:23:50;;;;;;;11.40;6.40;;;;;;;18.91;48.55;101484.69;5064676;28;20033;-61
2021/12/06 08:26:17;;;;;;;7.78;5.72;;;;;;;18.91;47.75;101482.84;5059124;28;20040;-62
2021/12/06 08:28:43;;;;;;;9.20;5.53;;;;;;;18.91;48.13;101487.34;5058467;28;20096;-62
2021/12/06 08:31:08;;;;;;;9.73;5.95;;;;;;;18.91;47.95;101492.66;5051727;28;20042;-62
2021/12/06 08:33:34;;;;;;;8.98;6.13;;;;;;;18.91;48.05;101503.28;5032668;28;20040;-62
2021/12/06 08:36:00;;;;;;;9.88;5.70;;;;;;;18.88;48.02;101495.56;5069495;28;20051;-62
2021/12/06 08:38:27;;;;;;;11.10;5.20;;;;;;;18.96;47.99;101485.16;5069171;28;20048;-62
2021/12/06 08:40:53;;;;;;;30.42;8.82;;;;;;;18.81;46.52;101484.59;5069677;28;20465;-62
2021/12/06 08:43:19;;;;;;;16.40;5.88;;;;;;;18.84;47.59;101475.53;5068466;28;20041;-62
2021/12/06 08:45:59;;;;;;;8.88;5.75;;;;;;;18.86;47.25;101476.22;5042775;28;20075;-62
2021/12/06 08:48:26;;;;;;;9.15;5.47;;;;;;;18.91;47.41;101477.53;5064212;28;20041;-62
2021/12/06 08:50:53;;;;;;;11.55;6.13;;;;;;;18.95;47.52;101481.63;5049694;28;20036;-61
2021/12/06 08:53:18;;;;;;;12.55;6.05;;;;;;;18.95;47.51;101480.78;5057909;28;20048;-62
2021/12/06 08:55:44;;;;;;;9.68;5.68;;;;;;;18.97;47.43;101478.84;5069280;28;20460;-61
2021/12/06 08:58:09;;;;;;;9.07;5.35;;;;;;;18.98;47.55;101477.88;5050708;28;20115;-62
2021/12/06 09:00:35;;;;;;;11.48;6.20;;;;;;;18.93;47.73;101477.44;5061950;28;20060;-62
2021/12/06 09:03:01;;;;;;;8.93;5.72;;;;;;;18.96;47.92;101466.53;5034116;28;20064;-64
2021/12/06 09:05:31;;;;;;;10.27;6.07;;;;;;;18.94;47.50;101469.31;5066070;28;20052;-61
2021/12/06 09:07:56;;;;;;;8.50;5.28;;;;;;;18.96;47.82;101471.84;5065942;28;20518;-61
2021/12/06 09:10:21;;;;;;;8.90;5.35;;;;;;;18.97;48.04;101478.84;5048905;28;20041;-62
2021/12/06 09:12:48;;;;;;;9.95;6.00;;;;;;;18.99;47.72;101479.59;5063727;28;20439;-62
2021/12/06 09:15:14;;;;;;;10.48;6.00;;;;;;;19.01;47.54;101476.78;5068222;28;20045;-62
2021/12/06 09:17:40;;;;;;;10.20;5.78;;;;;;;18.97;47.38;101475.34;5051296;28;20087;-62
2021/12/06 09:20:07;;;;;;;9.88;5.15;;;;;;;19.02;47.59;101467.81;5065486;28;20548;-64
2021/12/06 09:22:32;;;;;;;8.40;4.75;;;;;;;19.09;47.78;101475.19;5052298;28;20087;-63
2021/12/06 09:24:57;;;;;;;8.95;5.22;;;;;;;19.21;47.46;101475.13;5053489;28;20504;-63
2021/12/06 09:27:23;;;;;;;7.22;4.70;;;;;;;19.33;47.68;101482.06;5068030;28;20634;-63
2021/12/06 09:29:48;;;;;;;18.00;9.60;;;;;;;18.64;45.58;101483.25;5063460;28;20033;-63
2021/12/06 09:32:14;;;;;;;12.13;7.13;;;;;;;18.95;46.93;101486.09;5057030;28;20500;-63
2021/12/06 09:34:43;;;;;;;11.70;7.55;;;;;;;18.84;46.50;101484.34;5050912;28;20063;-63
2021/12/06 09:37:08;;;;;;;13.30;6.53;;;;;;;18.86;46.65;101484.19;5052681;28;20041;-64
2021/12/06 09:39:34;;;;;;;11.27;6.53;;;;;;;18.88;46.88;101477.78;5062728;28;20086;-63
2021/12/06 09:42:00;;;;;;;10.38;5.93;;;;;;;18.88;47.24;101476.94;5061211;28;20041;-63
2021/12/06 09:44:26;;;;;;;9.70;6.03;;;;;;;18.89;46.70;101470.66;5032358;28;20051;-63
2021/12/06 09:46:51;;;;;;;9.25;6.30;;;;;;;18.86;47.48;101469.09;5030740;28;20563;-63
2021/12/06 09:49:18;;;;;;;10.10;6.60;;;;;;;18.88;46.83;101466.31;5048369;28;20041;-63
2021/12/06 09:51:51;;;;;;;10.68;6.05;;;;;;;18.87;47.18;101472.63;5063548;28;20515;-63
2021/12/06 09:54:25;;;;;;;10.02;6.40;;;;;;;18.86;46.82;101478.88;5063477;28;20045;-63
2021/12/06 09:56:50;;;;;;;9.65;5.60;;;;;;;18.80;46.95;101479.38;5050582;28;20577;-62
2021/12/06 09:59:18;;;;;;;10.00;6.50;;;;;;;18.87;47.78;101481.44;5067797;28;20037;-62
2021/12/06 10:01:50;;;;;;;12.85;7.03;;;;;;;18.92;47.44;101481.88;5068365;28;20037;-63
2021/12/06 10:04:19;;;;;;;10.93;6.80;;;;;;;18.89;47.73;101473.31;5060300;28;20045;-62
2021/12/06 10:06:44;;;;;;;11.52;6.18;;;;;;;18.91;47.11;101466.91;5067215;28;20688;-62
2021/12/06 10:09:11;;;;;;;11.63;7.18;;;;;;;18.92;47.46;101451.78;5040213;28;20083;-62
2021/12/06 10:11:36;;;;;;;9.80;6.22;;;;;;;18.92;47.47;101447.31;5040062;28;20053;-62
2021/12/06 10:14:02;;;;;;;9.43;6.50;;;;;;;18.95;47.11;101446.22;5043342;28;20044;-64
2021/12/06 10:16:27;;;;;;;10.43;6.20;;;;;;;18.93;47.52;101450.84;5067936;28;20051;-63
2021/12/06 10:18:53;;;;;;;13.35;6.57;;;;;;;18.95;47.43;101440.91;5049896;28;20037;-63
2021/12/06 10:21:19;;;;;;;9.68;6.53;;;;;;;18.93;46.99;101426.91;5049940;28;20044;-62
2021/12/06 10:23:44;;;;;;;17.00;8.23;;;;;;;18.76;45.92;101425.63;5067615;28;20036;-63
2021/12/06 10:26:13;;;;;;;12.15;7.22;;;;;;;18.77;47.03;101416.69;5048570;28;20048;-63
2021/12/06 10:28:41;;;;;;;11.65;6.65;;;;;;;18.84;47.72;101409.06;5067617;28;20036;-63
2021/12/06 10:31:07;;;;;;;10.48;6.97;;;;;;;18.90;46.90;101400.56;5049762;28;20058;-64
2021/12/06 10:33:34;;;;;;;10.40;6.75;;;;;;;18.88;46.31;101386.56;5064432;28;20037;-63
2021/12/06 10:36:04;;;;;;;12.32;7.00;;;;;;;18.91;46.89;101391.63;5055941;28;20040;-62
2021/12/06 10:38:33;;;;;;;10.30;6.32;;;;;;;18.88;46.59;101399.84;5067071;28;20075;-63
2021/12/06 10:41:01;;;;;;;13.80;7.25;;;;;;;18.88;46.73;101386.56;5050363;28;20048;-63
2021/12/06 10:43:26;;;;;;;12.57;7.47;;;;;;;18.87;46.77;101376.91;5067410;28;20051;-63
2021/12/06 10:45:54;;;;;;;13.02;7.32;;;;;;;18.89;47.00;101367.81;5067012;28;20040;-63
2021/12/06 10:48:23;;;;;;;12.45;7.10;;;;;;;18.90;46.66;101361.53;5059276;28;20075;-63
2021/12/06 10:50:57;;;;;;;12.27;7.30;;;;;;;18.89;46.13;101353.66;5029467;28;20055;-63
2021/12/06 10:53:28;;;;;;;11.77;6.80;;;;;;;18.94;46.44;101351.47;5057539;28;20063;-63
2021/12/06 10:55:56;;;;;;;10.82;6.65;;;;;;;18.94;46.21;101348.81;5044407;28;20696;-63
2021/12/06 10:58:23;;;;;;;11.85;7.20;;;;;;;18.97;46.20;101340.59;5048468;28;20091;-63
2021/12/06 11:00:50;;;;;;;12.10;7.25;;;;;;;18.97;46.50;101327.28;5046936;28;20045;-63
2021/12/06 11:03:34;;;;;;;12.48;7.35;;;;;;;18.94;46.74;101319.56;5055665;28;20045;-63
2021/12/06 11:06:07;;;;;;;12.07;7.30;;;;;;;18.92;46.82;101324.16;5067657;28;20132;-62
2021/12/06 11:08:34;;;;;;;15.55;9.85;;;;;;;18.71;46.33;101332.97;5059658;28;20040;-63
2021/12/06 11:11:03;;;;;;;13.98;8.02;;;;;;;18.84;47.07;101324.81;5071179;28;20040;-63
2021/12/06 11:13:33;;;;;;;13.77;7.68;;;;;;;18.91;46.17;101322.50;5071349;28;20396;-62
2021/12/06 11:16:05;;;;;;;12.40;7.72;;;;;;;18.98;46.94;101320.16;5049598;28;20488;-63
2021/12/06 11:18:46;;;;;;;12.98;7.80;;;;;;;19.12;46.92;101309.19;5068419;28;20116;-63
2021/12/06 11:21:17;;;;;;;13.40;7.72;;;;;;;19.07;46.29;101300.75;5054589;28;20686;-63
2021/12/06 11:24:08;;;;;;;12.23;7.88;;;;;;;19.06;45.92;101294.59;5071268;28;20046;-63
2021/12/06 11:26:39;;;;;;;19.73;10.13;;;;;;;18.75;45.00;101284.88;5070458;28;20106;-63
2021/12/06 11:29:15;;;;;;;14.85;8.60;;;;;;;18.92;46.98;101279.81;5070651;28;20043;-61
2021/12/06 11:31:42;;;;;;;12.15;7.30;;;;;;;19.14;46.90;101275.31;5071167;28;20040;-63
2021/12/06 11:34:08;;;;;;;14.57;8.25;;;;;;;19.12;46.44;101267.47;5033715;28;20040;-63
2021/12/06 11:36:33;;;;;;;13.05;7.85;;;;;;;19.11;46.63;101270.25;5066515;28;20407;-63
2021/12/06 11:39:04;;;;;;;15.10;7.55;;;;;;;19.10;46.94;101268.59;5052796;28;20037;-63